Terminal Aerodrome Forecast
Issued by NWS

Home | Current Version | Previous Version | Text Only | Print | Product List | Glossary On
Versions: 1 2 3 4 5 6 7 8 9 10 11 12 13 14 15 16 17 18 19 20
000
FTUS41 KCAR 222300
TAFHUL
TAF
KHUL 222335Z 2300/2324 05011KT 6SM -RA OVC060
     FM232100 05015KT 4SM -RA OVC008
     FM232300 05016G23KT 2SM -RA OVC008=

USA.gov is the U.S. government's official web portal to all federal, state and local government web resources and services.